sensor_id;sensor_type;location;lat;lon;timestamp;P1;durP1;ratioP1;P2;durP2;ratioP2
33108;SDS011;19481;51.118;6.940;2022-08-19T00:01:08;9.18;;;6.03;;
33108;SDS011;19481;51.118;6.940;2022-08-19T00:06:10;6.50;;;5.30;;
33108;SDS011;19481;51.118;6.940;2022-08-19T00:11:13;6.20;;;5.60;;
33108;SDS011;19481;51.118;6.940;2022-08-19T00:16:15;7.30;;;6.53;;
33108;SDS011;19481;51.118;6.940;2022-08-19T00:21:20;6.80;;;6.10;;
33108;SDS011;19481;51.118;6.940;2022-08-19T00:26:23;8.38;;;6.35;;
33108;SDS011;19481;51.118;6.940;2022-08-19T00:31:25;8.43;;;6.07;;
33108;SDS011;19481;51.118;6.940;2022-08-19T00:36:28;7.80;;;6.22;;
33108;SDS011;19481;51.118;6.940;2022-08-19T00:41:31;7.35;;;5.97;;
33108;SDS011;19481;51.118;6.940;2022-08-19T00:46:36;12.02;;;6.63;;
33108;SDS011;19481;51.118;6.940;2022-08-19T00:51:39;7.43;;;6.57;;
33108;SDS011;19481;51.118;6.940;2022-08-19T00:56:45;7.20;;;6.45;;
33108;SDS011;19481;51.118;6.940;2022-08-19T01:01:47;7.80;;;6.50;;
33108;SDS011;19481;51.118;6.940;2022-08-19T01:06:49;7.65;;;6.40;;
33108;SDS011;19481;51.118;6.940;2022-08-19T01:11:51;9.93;;;6.18;;
33108;SDS011;19481;51.118;6.940;2022-08-19T01:16:54;7.78;;;6.50;;
33108;SDS011;19481;51.118;6.940;2022-08-19T01:21:58;7.35;;;6.28;;
33108;SDS011;19481;51.118;6.940;2022-08-19T01:27:06;7.82;;;6.50;;
33108;SDS011;19481;51.118;6.940;2022-08-19T01:32:10;9.52;;;5.95;;
33108;SDS011;19481;51.118;6.940;2022-08-19T01:37:14;7.43;;;6.60;;
33108;SDS011;19481;51.118;6.940;2022-08-19T01:42:17;6.35;;;5.75;;
33108;SDS011;19481;51.118;6.940;2022-08-19T01:47:19;8.52;;;5.88;;
33108;SDS011;19481;51.118;6.940;2022-08-19T01:52:21;9.55;;;6.13;;
33108;SDS011;19481;51.118;6.940;2022-08-19T01:57:24;6.82;;;6.22;;
33108;SDS011;19481;51.118;6.940;2022-08-19T02:02:25;6.70;;;6.00;;
33108;SDS011;19481;51.118;6.940;2022-08-19T02:07:27;7.13;;;6.03;;
33108;SDS011;19481;51.118;6.940;2022-08-19T02:12:30;7.80;;;6.32;;
33108;SDS011;19481;51.118;6.940;2022-08-19T02:17:32;8.43;;;6.15;;
33108;SDS011;19481;51.118;6.940;2022-08-19T02:22:34;7.95;;;7.13;;
33108;SDS011;19481;51.118;6.940;2022-08-19T02:27:37;12.70;;;6.72;;
33108;SDS011;19481;51.118;6.940;2022-08-19T02:32:39;7.60;;;6.40;;
33108;SDS011;19481;51.118;6.940;2022-08-19T02:37:41;9.40;;;6.82;;
33108;SDS011;19481;51.118;6.940;2022-08-19T02:43:03;10.38;;;7.40;;
33108;SDS011;19481;51.118;6.940;2022-08-19T02:48:07;9.40;;;7.18;;
33108;SDS011;19481;51.118;6.940;2022-08-19T02:53:09;10.63;;;7.53;;
33108;SDS011;19481;51.118;6.940;2022-08-19T02:58:13;9.27;;;7.63;;
33108;SDS011;19481;51.118;6.940;2022-08-19T03:03:16;12.02;;;7.57;;
33108;SDS011;19481;51.118;6.940;2022-08-19T03:08:18;11.38;;;7.25;;
33108;SDS011;19481;51.118;6.940;2022-08-19T03:13:21;9.23;;;6.88;;
33108;SDS011;19481;51.118;6.940;2022-08-19T03:18:24;7.70;;;6.90;;
33108;SDS011;19481;51.118;6.940;2022-08-19T03:23:25;8.73;;;6.97;;
33108;SDS011;19481;51.118;6.940;2022-08-19T03:28:29;9.85;;;7.13;;
33108;SDS011;19481;51.118;6.940;2022-08-19T03:33:32;9.98;;;7.47;;
33108;SDS011;19481;51.118;6.940;2022-08-19T03:38:35;9.15;;;7.00;;
33108;SDS011;19481;51.118;6.940;2022-08-19T03:43:39;7.63;;;6.82;;
33108;SDS011;19481;51.118;6.940;2022-08-19T03:48:42;9.20;;;7.75;;
33108;SDS011;19481;51.118;6.940;2022-08-19T03:53:45;8.23;;;6.78;;
33108;SDS011;19481;51.118;6.940;2022-08-19T03:58:49;9.50;;;7.18;;
33108;SDS011;19481;51.118;6.940;2022-08-19T04:03:50;12.20;;;8.55;;
33108;SDS011;19481;51.118;6.940;2022-08-19T04:08:53;9.50;;;7.30;;
33108;SDS011;19481;51.118;6.940;2022-08-19T04:13:56;8.35;;;6.93;;
33108;SDS011;19481;51.118;6.940;2022-08-19T04:18:59;10.82;;;7.88;;
33108;SDS011;19481;51.118;6.940;2022-08-19T04:24:02;12.45;;;9.07;;
33108;SDS011;19481;51.118;6.940;2022-08-19T04:29:07;18.42;;;12.00;;
33108;SDS011;19481;51.118;6.940;2022-08-19T04:34:11;13.50;;;10.82;;
33108;SDS011;19481;51.118;6.940;2022-08-19T04:39:15;16.45;;;10.98;;
33108;SDS011;19481;51.118;6.940;2022-08-19T04:44:20;13.77;;;10.10;;
33108;SDS011;19481;51.118;6.940;2022-08-19T04:49:22;14.13;;;10.45;;
33108;SDS011;19481;51.118;6.940;2022-08-19T04:54:25;15.07;;;10.10;;
33108;SDS011;19481;51.118;6.940;2022-08-19T04:59:28;13.63;;;9.23;;
33108;SDS011;19481;51.118;6.940;2022-08-19T05:04:30;16.90;;;11.68;;
33108;SDS011;19481;51.118;6.940;2022-08-19T05:09:33;15.68;;;10.13;;
33108;SDS011;19481;51.118;6.940;2022-08-19T05:14:36;15.50;;;10.95;;
33108;SDS011;19481;51.118;6.940;2022-08-19T05:19:38;18.63;;;9.95;;
33108;SDS011;19481;51.118;6.940;2022-08-19T05:24:57;14.23;;;10.63;;
33108;SDS011;19481;51.118;6.940;2022-08-19T05:30:02;15.45;;;10.50;;
33108;SDS011;19481;51.118;6.940;2022-08-19T05:35:05;19.75;;;13.23;;
33108;SDS011;19481;51.118;6.940;2022-08-19T05:40:08;29.23;;;17.25;;
33108;SDS011;19481;51.118;6.940;2022-08-19T05:45:12;28.45;;;17.60;;
33108;SDS011;19481;51.118;6.940;2022-08-19T05:50:13;33.95;;;18.92;;
33108;SDS011;19481;51.118;6.940;2022-08-19T05:55:17;32.05;;;20.85;;
33108;SDS011;19481;51.118;6.940;2022-08-19T06:00:21;36.17;;;20.90;;
33108;SDS011;19481;51.118;6.940;2022-08-19T06:05:23;32.88;;;21.23;;
33108;SDS011;19481;51.118;6.940;2022-08-19T06:10:25;34.65;;;22.70;;
33108;SDS011;19481;51.118;6.940;2022-08-19T06:15:30;37.30;;;21.17;;
33108;SDS011;19481;51.118;6.940;2022-08-19T06:20:31;38.42;;;24.48;;
33108;SDS011;19481;51.118;6.940;2022-08-19T06:25:33;35.30;;;22.55;;
33108;SDS011;19481;51.118;6.940;2022-08-19T06:30:36;33.10;;;21.13;;
33108;SDS011;19481;51.118;6.940;2022-08-19T06:35:38;33.08;;;20.67;;
33108;SDS011;19481;51.118;6.940;2022-08-19T06:40:40;35.00;;;22.10;;
33108;SDS011;19481;51.118;6.940;2022-08-19T06:45:43;33.88;;;18.70;;
33108;SDS011;19481;51.118;6.940;2022-08-19T06:50:45;34.90;;;20.15;;
33108;SDS011;19481;51.118;6.940;2022-08-19T06:55:47;31.33;;;19.80;;
33108;SDS011;19481;51.118;6.940;2022-08-19T07:01:02;34.60;;;19.92;;
33108;SDS011;19481;51.118;6.940;2022-08-19T07:06:05;33.85;;;19.25;;
33108;SDS011;19481;51.118;6.940;2022-08-19T07:11:09;29.35;;;18.90;;
33108;SDS011;19481;51.118;6.940;2022-08-19T07:16:18;32.88;;;19.25;;
33108;SDS011;19481;51.118;6.940;2022-08-19T07:21:22;28.83;;;19.35;;
33108;SDS011;19481;51.118;6.940;2022-08-19T07:26:28;30.33;;;18.80;;
33108;SDS011;19481;51.118;6.940;2022-08-19T07:31:33;31.85;;;21.45;;
33108;SDS011;19481;51.118;6.940;2022-08-19T07:36:37;37.13;;;19.20;;
33108;SDS011;19481;51.118;6.940;2022-08-19T07:41:41;29.05;;;18.70;;
33108;SDS011;19481;51.118;6.940;2022-08-19T07:46:45;29.63;;;17.73;;
33108;SDS011;19481;51.118;6.940;2022-08-19T07:51:50;28.17;;;18.17;;
33108;SDS011;19481;51.118;6.940;2022-08-19T07:56:53;27.08;;;16.63;;
33108;SDS011;19481;51.118;6.940;2022-08-19T08:01:57;29.55;;;17.23;;
33108;SDS011;19481;51.118;6.940;2022-08-19T08:07:00;25.88;;;16.88;;
33108;SDS011;19481;51.118;6.940;2022-08-19T08:12:20;30.90;;;18.52;;
33108;SDS011;19481;51.118;6.940;2022-08-19T08:17:26;33.78;;;20.40;;
33108;SDS011;19481;51.118;6.940;2022-08-19T08:22:29;33.13;;;17.30;;
33108;SDS011;19481;51.118;6.940;2022-08-19T08:27:48;27.95;;;17.50;;
33108;SDS011;19481;51.118;6.940;2022-08-19T08:32:53;28.75;;;17.88;;
33108;SDS011;19481;51.118;6.940;2022-08-19T08:37:55;26.02;;;16.27;;
33108;SDS011;19481;51.118;6.940;2022-08-19T08:42:57;30.23;;;17.55;;
33108;SDS011;19481;51.118;6.940;2022-08-19T08:48:10;27.60;;;16.98;;
33108;SDS011;19481;51.118;6.940;2022-08-19T08:53:18;24.10;;;16.50;;
33108;SDS011;19481;51.118;6.940;2022-08-19T08:58:24;30.83;;;18.38;;
33108;SDS011;19481;51.118;6.940;2022-08-19T09:03:32;31.55;;;18.92;;
33108;SDS011;19481;51.118;6.940;2022-08-19T09:08:38;32.50;;;19.40;;
33108;SDS011;19481;51.118;6.940;2022-08-19T09:13:45;30.75;;;17.55;;
33108;SDS011;19481;51.118;6.940;2022-08-19T09:18:57;28.33;;;17.13;;
33108;SDS011;19481;51.118;6.940;2022-08-19T09:24:02;27.80;;;15.90;;
33108;SDS011;19481;51.118;6.940;2022-08-19T09:29:04;28.83;;;15.85;;
33108;SDS011;19481;51.118;6.940;2022-08-19T09:34:08;25.15;;;14.90;;
33108;SDS011;19481;51.118;6.940;2022-08-19T09:39:09;27.42;;;14.45;;
33108;SDS011;19481;51.118;6.940;2022-08-19T09:44:11;20.45;;;13.00;;
33108;SDS011;19481;51.118;6.940;2022-08-19T09:49:15;24.75;;;14.75;;
33108;SDS011;19481;51.118;6.940;2022-08-19T09:54:18;20.50;;;11.88;;
33108;SDS011;19481;51.118;6.940;2022-08-19T09:59:20;19.90;;;12.85;;
33108;SDS011;19481;51.118;6.940;2022-08-19T10:04:23;18.75;;;11.45;;
33108;SDS011;19481;51.118;6.940;2022-08-19T10:09:45;19.27;;;10.00;;
33108;SDS011;19481;51.118;6.940;2022-08-19T10:14:47;16.58;;;10.00;;
33108;SDS011;19481;51.118;6.940;2022-08-19T10:19:51;11.50;;;8.48;;
33108;SDS011;19481;51.118;6.940;2022-08-19T10:24:53;13.55;;;7.82;;
33108;SDS011;19481;51.118;6.940;2022-08-19T10:29:54;17.42;;;9.48;;
33108;SDS011;19481;51.118;6.940;2022-08-19T10:34:58;14.10;;;8.93;;
33108;SDS011;19481;51.118;6.940;2022-08-19T10:40:00;10.43;;;7.82;;
33108;SDS011;19481;51.118;6.940;2022-08-19T10:45:03;10.32;;;7.57;;
33108;SDS011;19481;51.118;6.940;2022-08-19T10:50:08;8.93;;;6.18;;
33108;SDS011;19481;51.118;6.940;2022-08-19T10:55:27;9.35;;;6.45;;
33108;SDS011;19481;51.118;6.940;2022-08-19T11:00:50;14.07;;;10.27;;
33108;SDS011;19481;51.118;6.940;2022-08-19T11:05:58;10.13;;;6.53;;
33108;SDS011;19481;51.118;6.940;2022-08-19T11:11:01;10.68;;;7.60;;
33108;SDS011;19481;51.118;6.940;2022-08-19T11:16:04;7.60;;;6.07;;
33108;SDS011;19481;51.118;6.940;2022-08-19T11:21:11;9.18;;;7.30;;
33108;SDS011;19481;51.118;6.940;2022-08-19T11:26:17;12.25;;;7.60;;
33108;SDS011;19481;51.118;6.940;2022-08-19T11:31:20;12.20;;;8.93;;
33108;SDS011;19481;51.118;6.940;2022-08-19T11:36:25;11.18;;;7.78;;
33108;SDS011;19481;51.118;6.940;2022-08-19T11:41:27;9.50;;;6.75;;
33108;SDS011;19481;51.118;6.940;2022-08-19T11:46:29;9.38;;;6.47;;
33108;SDS011;19481;51.118;6.940;2022-08-19T11:51:33;15.18;;;6.75;;
33108;SDS011;19481;51.118;6.940;2022-08-19T11:56:36;9.20;;;6.35;;
33108;SDS011;19481;51.118;6.940;2022-08-19T12:01:38;8.98;;;5.38;;
33108;SDS011;19481;51.118;6.940;2022-08-19T12:06:42;7.95;;;5.03;;
33108;SDS011;19481;51.118;6.940;2022-08-19T12:11:44;5.00;;;4.47;;
33108;SDS011;19481;51.118;6.940;2022-08-19T12:16:46;7.57;;;4.97;;
33108;SDS011;19481;51.118;6.940;2022-08-19T12:21:49;7.78;;;4.90;;
33108;SDS011;19481;51.118;6.940;2022-08-19T12:26:54;5.37;;;4.47;;
33108;SDS011;19481;51.118;6.940;2022-08-19T12:31:57;7.85;;;4.50;;
33108;SDS011;19481;51.118;6.940;2022-08-19T12:37:03;6.18;;;4.10;;
33108;SDS011;19481;51.118;6.940;2022-08-19T12:42:05;7.72;;;5.07;;
33108;SDS011;19481;51.118;6.940;2022-08-19T12:47:09;6.03;;;3.88;;
33108;SDS011;19481;51.118;6.940;2022-08-19T12:52:13;7.65;;;4.53;;
33108;SDS011;19481;51.118;6.940;2022-08-19T12:57:16;8.65;;;4.60;;
33108;SDS011;19481;51.118;6.940;2022-08-19T13:02:17;7.03;;;4.10;;
33108;SDS011;19481;51.118;6.940;2022-08-19T13:07:21;5.95;;;4.47;;
33108;SDS011;19481;51.118;6.940;2022-08-19T13:12:22;12.63;;;3.60;;
33108;SDS011;19481;51.118;6.940;2022-08-19T13:17:26;5.20;;;3.78;;
33108;SDS011;19481;51.118;6.940;2022-08-19T13:22:29;6.85;;;3.30;;
33108;SDS011;19481;51.118;6.940;2022-08-19T13:27:31;12.93;;;3.20;;
33108;SDS011;19481;51.118;6.940;2022-08-19T13:32:33;5.63;;;3.50;;
33108;SDS011;19481;51.118;6.940;2022-08-19T13:37:53;8.13;;;3.75;;
33108;SDS011;19481;51.118;6.940;2022-08-19T13:42:55;4.55;;;3.55;;
33108;SDS011;19481;51.118;6.940;2022-08-19T13:47:57;4.47;;;3.85;;
33108;SDS011;19481;51.118;6.940;2022-08-19T13:53:01;7.70;;;3.75;;
33108;SDS011;19481;51.118;6.940;2022-08-19T13:58:04;3.47;;;2.95;;
33108;SDS011;19481;51.118;6.940;2022-08-19T14:03:05;4.90;;;3.00;;
33108;SDS011;19481;51.118;6.940;2022-08-19T14:08:08;4.07;;;2.97;;
33108;SDS011;19481;51.118;6.940;2022-08-19T14:13:12;4.82;;;3.13;;
33108;SDS011;19481;51.118;6.940;2022-08-19T14:18:16;3.40;;;2.75;;
33108;SDS011;19481;51.118;6.940;2022-08-19T14:23:20;4.90;;;2.47;;
33108;SDS011;19481;51.118;6.940;2022-08-19T14:28:22;3.17;;;2.55;;
33108;SDS011;19481;51.118;6.940;2022-08-19T14:33:24;3.70;;;2.60;;
33108;SDS011;19481;51.118;6.940;2022-08-19T14:38:27;3.33;;;2.45;;
33108;SDS011;19481;51.118;6.940;2022-08-19T14:43:31;7.93;;;2.72;;
33108;SDS011;19481;51.118;6.940;2022-08-19T14:48:33;3.60;;;2.55;;
33108;SDS011;19481;51.118;6.940;2022-08-19T14:53:37;3.10;;;2.15;;
33108;SDS011;19481;51.118;6.940;2022-08-19T14:58:40;5.07;;;2.42;;
33108;SDS011;19481;51.118;6.940;2022-08-19T15:03:42;5.10;;;2.03;;
33108;SDS011;19481;51.118;6.940;2022-08-19T15:08:45;3.92;;;2.30;;
33108;SDS011;19481;51.118;6.940;2022-08-19T15:13:47;5.95;;;2.33;;
33108;SDS011;19481;51.118;6.940;2022-08-19T15:18:51;3.65;;;3.05;;
33108;SDS011;19481;51.118;6.940;2022-08-19T15:23:56;3.40;;;2.60;;
33108;SDS011;19481;51.118;6.940;2022-08-19T15:28:59;5.15;;;3.50;;
33108;SDS011;19481;51.118;6.940;2022-08-19T15:34:01;3.63;;;2.80;;
33108;SDS011;19481;51.118;6.940;2022-08-19T15:39:07;3.15;;;2.30;;
33108;SDS011;19481;51.118;6.940;2022-08-19T15:44:11;2.45;;;1.35;;
33108;SDS011;19481;51.118;6.940;2022-08-19T15:49:15;3.10;;;1.65;;
33108;SDS011;19481;51.118;6.940;2022-08-19T15:54:20;6.03;;;4.13;;
33108;SDS011;19481;51.118;6.940;2022-08-19T15:59:22;3.30;;;2.00;;
33108;SDS011;19481;51.118;6.940;2022-08-19T16:04:52;5.03;;;1.90;;
33108;SDS011;19481;51.118;6.940;2022-08-19T16:10:13;3.88;;;3.25;;
33108;SDS011;19481;51.118;6.940;2022-08-19T16:15:15;4.50;;;3.00;;
33108;SDS011;19481;51.118;6.940;2022-08-19T16:20:17;4.22;;;2.22;;
33108;SDS011;19481;51.118;6.940;2022-08-19T16:25:23;4.32;;;2.03;;
33108;SDS011;19481;51.118;6.940;2022-08-19T16:30:28;3.00;;;2.00;;
33108;SDS011;19481;51.118;6.940;2022-08-19T16:35:29;7.28;;;2.33;;
33108;SDS011;19481;51.118;6.940;2022-08-19T16:40:33;4.20;;;2.47;;
33108;SDS011;19481;51.118;6.940;2022-08-19T16:45:35;4.03;;;2.13;;
33108;SDS011;19481;51.118;6.940;2022-08-19T16:50:36;1.77;;;1.67;;
33108;SDS011;19481;51.118;6.940;2022-08-19T16:55:39;4.22;;;1.50;;
33108;SDS011;19481;51.118;6.940;2022-08-19T17:00:41;1.83;;;1.58;;
33108;SDS011;19481;51.118;6.940;2022-08-19T17:05:44;2.60;;;1.70;;
33108;SDS011;19481;51.118;6.940;2022-08-19T17:10:48;2.00;;;1.63;;
33108;SDS011;19481;51.118;6.940;2022-08-19T17:15:50;4.03;;;2.05;;
33108;SDS011;19481;51.118;6.940;2022-08-19T17:20:53;2.08;;;1.85;;
33108;SDS011;19481;51.118;6.940;2022-08-19T17:25:57;5.38;;;2.08;;
33108;SDS011;19481;51.118;6.940;2022-08-19T17:30:59;3.05;;;2.67;;
33108;SDS011;19481;51.118;6.940;2022-08-19T17:36:00;4.72;;;1.90;;
33108;SDS011;19481;51.118;6.940;2022-08-19T17:41:05;4.70;;;1.88;;
33108;SDS011;19481;51.118;6.940;2022-08-19T17:46:06;2.67;;;1.77;;
33108;SDS011;19481;51.118;6.940;2022-08-19T17:51:12;2.20;;;1.65;;
33108;SDS011;19481;51.118;6.940;2022-08-19T17:56:16;3.07;;;1.70;;
33108;SDS011;19481;51.118;6.940;2022-08-19T18:01:18;2.13;;;1.77;;
33108;SDS011;19481;51.118;6.940;2022-08-19T18:06:20;1.58;;;1.48;;
33108;SDS011;19481;51.118;6.940;2022-08-19T18:11:23;2.05;;;1.85;;
33108;SDS011;19481;51.118;6.940;2022-08-19T18:16:25;1.70;;;1.60;;
33108;SDS011;19481;51.118;6.940;2022-08-19T18:21:26;2.75;;;1.67;;
33108;SDS011;19481;51.118;6.940;2022-08-19T18:26:31;7.68;;;3.85;;
33108;SDS011;19481;51.118;6.940;2022-08-19T18:31:35;2.95;;;2.65;;
33108;SDS011;19481;51.118;6.940;2022-08-19T18:36:37;5.63;;;3.33;;
33108;SDS011;19481;51.118;6.940;2022-08-19T18:41:41;4.15;;;3.00;;
33108;SDS011;19481;51.118;6.940;2022-08-19T18:47:00;2.08;;;1.92;;
33108;SDS011;19481;51.118;6.940;2022-08-19T18:52:19;6.53;;;4.35;;
33108;SDS011;19481;51.118;6.940;2022-08-19T18:57:25;3.85;;;2.17;;
33108;SDS011;19481;51.118;6.940;2022-08-19T19:02:27;1.98;;;1.52;;
33108;SDS011;19481;51.118;6.940;2022-08-19T19:07:29;14.05;;;9.32;;
33108;SDS011;19481;51.118;6.940;2022-08-19T19:12:32;1.70;;;1.60;;
33108;SDS011;19481;51.118;6.940;2022-08-19T19:17:36;2.97;;;1.90;;
33108;SDS011;19481;51.118;6.940;2022-08-19T19:22:38;2.40;;;2.13;;
33108;SDS011;19481;51.118;6.940;2022-08-19T19:27:42;4.60;;;2.10;;
33108;SDS011;19481;51.118;6.940;2022-08-19T19:32:43;2.20;;;1.60;;
33108;SDS011;19481;51.118;6.940;2022-08-19T19:37:45;1.95;;;1.70;;
33108;SDS011;19481;51.118;6.940;2022-08-19T19:42:52;2.85;;;1.70;;
33108;SDS011;19481;51.118;6.940;2022-08-19T19:47:54;2.00;;;1.73;;
33108;SDS011;19481;51.118;6.940;2022-08-19T19:52:58;2.50;;;1.80;;
33108;SDS011;19481;51.118;6.940;2022-08-19T19:58:01;1.95;;;1.73;;
33108;SDS011;19481;51.118;6.940;2022-08-19T20:03:03;2.35;;;1.80;;
33108;SDS011;19481;51.118;6.940;2022-08-19T20:08:06;1.85;;;1.55;;
33108;SDS011;19481;51.118;6.940;2022-08-19T20:13:26;2.00;;;1.80;;
33108;SDS011;19481;51.118;6.940;2022-08-19T20:18:28;2.30;;;1.80;;
33108;SDS011;19481;51.118;6.940;2022-08-19T20:23:30;2.90;;;2.03;;
33108;SDS011;19481;51.118;6.940;2022-08-19T20:28:33;2.30;;;1.70;;
33108;SDS011;19481;51.118;6.940;2022-08-19T20:33:35;1.90;;;1.60;;
33108;SDS011;19481;51.118;6.940;2022-08-19T20:38:36;1.27;;;1.17;;
33108;SDS011;19481;51.118;6.940;2022-08-19T20:43:39;1.52;;;1.00;;
33108;SDS011;19481;51.118;6.940;2022-08-19T20:48:41;1.00;;;0.90;;
33108;SDS011;19481;51.118;6.940;2022-08-19T20:53:43;0.95;;;0.85;;
33108;SDS011;19481;51.118;6.940;2022-08-19T20:58:46;3.50;;;0.90;;
33108;SDS011;19481;51.118;6.940;2022-08-19T21:03:48;0.88;;;0.88;;
33108;SDS011;19481;51.118;6.940;2022-08-19T21:08:51;1.33;;;0.68;;
33108;SDS011;19481;51.118;6.940;2022-08-19T21:13:54;0.88;;;0.73;;
33108;SDS011;19481;51.118;6.940;2022-08-19T21:18:56;1.08;;;0.80;;
33108;SDS011;19481;51.118;6.940;2022-08-19T21:23:58;1.95;;;0.75;;
33108;SDS011;19481;51.118;6.940;2022-08-19T21:29:01;1.30;;;0.90;;
33108;SDS011;19481;51.118;6.940;2022-08-19T21:34:03;1.73;;;0.80;;
33108;SDS011;19481;51.118;6.940;2022-08-19T21:39:05;1.25;;;0.90;;
33108;SDS011;19481;51.118;6.940;2022-08-19T21:44:08;0.95;;;0.80;;
33108;SDS011;19481;51.118;6.940;2022-08-19T21:49:09;0.85;;;0.85;;
33108;SDS011;19481;51.118;6.940;2022-08-19T21:54:11;7.28;;;0.98;;
33108;SDS011;19481;51.118;6.940;2022-08-19T21:59:14;1.27;;;1.00;;
33108;SDS011;19481;51.118;6.940;2022-08-19T22:04:17;1.33;;;1.02;;
33108;SDS011;19481;51.118;6.940;2022-08-19T22:09:19;0.80;;;0.80;;
33108;SDS011;19481;51.118;6.940;2022-08-19T22:14:22;2.00;;;1.35;;
33108;SDS011;19481;51.118;6.940;2022-08-19T22:19:24;1.25;;;1.13;;
33108;SDS011;19481;51.118;6.940;2022-08-19T22:24:25;1.23;;;1.00;;
33108;SDS011;19481;51.118;6.940;2022-08-19T22:29:28;1.20;;;1.10;;
33108;SDS011;19481;51.118;6.940;2022-08-19T22:34:30;2.65;;;1.20;;
33108;SDS011;19481;51.118;6.940;2022-08-19T22:39:32;1.48;;;1.08;;
33108;SDS011;19481;51.118;6.940;2022-08-19T22:44:36;1.40;;;1.30;;
33108;SDS011;19481;51.118;6.940;2022-08-19T22:49:37;1.92;;;1.13;;
33108;SDS011;19481;51.118;6.940;2022-08-19T22:54:39;1.98;;;1.30;;
33108;SDS011;19481;51.118;6.940;2022-08-19T22:59:42;2.55;;;1.40;;
33108;SDS011;19481;51.118;6.940;2022-08-19T23:04:43;2.10;;;1.30;;
33108;SDS011;19481;51.118;6.940;2022-08-19T23:09:45;3.15;;;1.20;;
33108;SDS011;19481;51.118;6.940;2022-08-19T23:14:48;1.55;;;1.17;;
33108;SDS011;19481;51.118;6.940;2022-08-19T23:19:51;1.55;;;1.42;;
33108;SDS011;19481;51.118;6.940;2022-08-19T23:24:52;1.48;;;1.30;;
33108;SDS011;19481;51.118;6.940;2022-08-19T23:29:55;4.28;;;1.48;;
33108;SDS011;19481;51.118;6.940;2022-08-19T23:35:14;3.55;;;1.63;;
33108;SDS011;19481;51.118;6.940;2022-08-19T23:40:16;3.70;;;1.52;;
33108;SDS011;19481;51.118;6.940;2022-08-19T23:45:23;1.60;;;1.50;;
33108;SDS011;19481;51.118;6.940;2022-08-19T23:50:26;3.25;;;1.50;;
33108;SDS011;19481;51.118;6.940;2022-08-19T23:55:30;2.40;;;1.70;;
